sensor_id;sensor_type;location;lat;lon;timestamp;temperature;humidity
11762;DHT22;5938;47.098;15.474;2024-03-02T00:00:50;7.30;99.90
11762;DHT22;5938;47.098;15.474;2024-03-02T00:04:54;7.40;99.90
11762;DHT22;5938;47.098;15.474;2024-03-02T00:08:58;7.40;99.90
11762;DHT22;5938;47.098;15.474;2024-03-02T00:13:02;7.30;99.90
11762;DHT22;5938;47.098;15.474;2024-03-02T00:17:14;7.30;99.90
11762;DHT22;5938;47.098;15.474;2024-03-02T00:21:19;7.30;99.90
11762;DHT22;5938;47.098;15.474;2024-03-02T00:25:24;7.30;99.90
11762;DHT22;5938;47.098;15.474;2024-03-02T00:29:28;7.30;99.90
11762;DHT22;5938;47.098;15.474;2024-03-02T00:33:38;7.40;99.90
11762;DHT22;5938;47.098;15.474;2024-03-02T00:37:43;7.30;99.90
11762;DHT22;5938;47.098;15.474;2024-03-02T00:41:46;7.30;99.90
11762;DHT22;5938;47.098;15.474;2024-03-02T00:45:50;7.30;99.90
11762;DHT22;5938;47.098;15.474;2024-03-02T00:49:54;7.30;99.90
11762;DHT22;5938;47.098;15.474;2024-03-02T00:53:59;7.30;99.90
11762;DHT22;5938;47.098;15.474;2024-03-02T00:58:05;7.30;99.90
11762;DHT22;5938;47.098;15.474;2024-03-02T01:02:09;7.30;99.90
11762;DHT22;5938;47.098;15.474;2024-03-02T01:06:13;7.30;99.90
11762;DHT22;5938;47.098;15.474;2024-03-02T01:10:17;7.20;99.90
11762;DHT22;5938;47.098;15.474;2024-03-02T01:14:22;7.30;99.90
11762;DHT22;5938;47.098;15.474;2024-03-02T01:18:25;7.30;99.90
11762;DHT22;5938;47.098;15.474;2024-03-02T01:22:31;7.30;99.90
11762;DHT22;5938;47.098;15.474;2024-03-02T01:26:34;7.20;99.90
11762;DHT22;5938;47.098;15.474;2024-03-02T01:30:38;7.20;99.90
11762;DHT22;5938;47.098;15.474;2024-03-02T01:34:41;7.30;99.90
11762;DHT22;5938;47.098;15.474;2024-03-02T01:38:46;7.30;99.90
11762;DHT22;5938;47.098;15.474;2024-03-02T01:42:49;7.20;99.90
11762;DHT22;5938;47.098;15.474;2024-03-02T01:46:52;7.20;99.90
11762;DHT22;5938;47.098;15.474;2024-03-02T01:50:56;7.20;99.90
11762;DHT22;5938;47.098;15.474;2024-03-02T01:55:01;7.10;99.90
11762;DHT22;5938;47.098;15.474;2024-03-02T01:59:05;7.10;99.90
11762;DHT22;5938;47.098;15.474;2024-03-02T02:03:15;7.10;99.90
11762;DHT22;5938;47.098;15.474;2024-03-02T02:07:19;7.20;99.90
11762;DHT22;5938;47.098;15.474;2024-03-02T02:11:24;7.20;99.90
11762;DHT22;5938;47.098;15.474;2024-03-02T02:15:28;7.20;99.90
11762;DHT22;5938;47.098;15.474;2024-03-02T02:19:33;7.10;99.90
11762;DHT22;5938;47.098;15.474;2024-03-02T02:23:38;7.20;99.90
11762;DHT22;5938;47.098;15.474;2024-03-02T02:27:41;7.10;99.90
11762;DHT22;5938;47.098;15.474;2024-03-02T02:31:44;7.20;99.90
11762;DHT22;5938;47.098;15.474;2024-03-02T02:35:48;7.20;99.90
11762;DHT22;5938;47.098;15.474;2024-03-02T02:39:52;7.20;99.90
11762;DHT22;5938;47.098;15.474;2024-03-02T02:43:56;7.10;99.90
11762;DHT22;5938;47.098;15.474;2024-03-02T02:48:00;7.00;99.90
11762;DHT22;5938;47.098;15.474;2024-03-02T02:52:05;7.20;99.90
11762;DHT22;5938;47.098;15.474;2024-03-02T02:56:11;7.20;99.90
11762;DHT22;5938;47.098;15.474;2024-03-02T03:00:16;7.20;99.90
11762;DHT22;5938;47.098;15.474;2024-03-02T03:04:22;7.10;99.90
11762;DHT22;5938;47.098;15.474;2024-03-02T03:08:25;7.20;99.90
11762;DHT22;5938;47.098;15.474;2024-03-02T03:12:30;7.20;99.90
11762;DHT22;5938;47.098;15.474;2024-03-02T03:16:35;7.10;99.90
11762;DHT22;5938;47.098;15.474;2024-03-02T03:20:39;7.10;99.90
11762;DHT22;5938;47.098;15.474;2024-03-02T03:24:42;7.10;99.90
11762;DHT22;5938;47.098;15.474;2024-03-02T03:28:47;7.10;99.90
11762;DHT22;5938;47.098;15.474;2024-03-02T03:32:50;7.10;99.90
11762;DHT22;5938;47.098;15.474;2024-03-02T03:36:54;7.10;99.90
11762;DHT22;5938;47.098;15.474;2024-03-02T03:40:57;7.00;99.90
11762;DHT22;5938;47.098;15.474;2024-03-02T03:45:03;7.00;99.90
11762;DHT22;5938;47.098;15.474;2024-03-02T03:49:07;7.00;99.90
11762;DHT22;5938;47.098;15.474;2024-03-02T03:53:11;6.90;99.90
11762;DHT22;5938;47.098;15.474;2024-03-02T03:57:17;6.70;99.90
11762;DHT22;5938;47.098;15.474;2024-03-02T04:01:21;6.60;99.90
11762;DHT22;5938;47.098;15.474;2024-03-02T04:05:25;6.40;99.90
11762;DHT22;5938;47.098;15.474;2024-03-02T04:09:29;6.40;99.90
11762;DHT22;5938;47.098;15.474;2024-03-02T04:13:33;6.50;99.90
11762;DHT22;5938;47.098;15.474;2024-03-02T04:17:38;6.60;99.90
11762;DHT22;5938;47.098;15.474;2024-03-02T04:21:41;6.50;99.90
11762;DHT22;5938;47.098;15.474;2024-03-02T04:25:45;6.60;99.90
11762;DHT22;5938;47.098;15.474;2024-03-02T04:29:48;6.60;99.90
11762;DHT22;5938;47.098;15.474;2024-03-02T04:33:54;6.60;99.90
11762;DHT22;5938;47.098;15.474;2024-03-02T04:37:57;6.60;99.90
11762;DHT22;5938;47.098;15.474;2024-03-02T04:42:01;6.70;99.90
11762;DHT22;5938;47.098;15.474;2024-03-02T04:46:05;6.70;99.90
11762;DHT22;5938;47.098;15.474;2024-03-02T04:50:10;6.70;99.90
11762;DHT22;5938;47.098;15.474;2024-03-02T04:54:13;6.80;99.90
11762;DHT22;5938;47.098;15.474;2024-03-02T04:58:19;6.80;99.90
11762;DHT22;5938;47.098;15.474;2024-03-02T05:02:23;6.90;99.90
11762;DHT22;5938;47.098;15.474;2024-03-02T05:06:28;6.80;99.90
11762;DHT22;5938;47.098;15.474;2024-03-02T05:10:31;6.80;99.90
11762;DHT22;5938;47.098;15.474;2024-03-02T05:14:36;6.80;99.90
11762;DHT22;5938;47.098;15.474;2024-03-02T05:18:39;6.80;99.90
11762;DHT22;5938;47.098;15.474;2024-03-02T05:22:44;6.80;99.90
11762;DHT22;5938;47.098;15.474;2024-03-02T05:26:49;6.80;99.90
11762;DHT22;5938;47.098;15.474;2024-03-02T05:30:52;6.80;99.90
11762;DHT22;5938;47.098;15.474;2024-03-02T05:34:56;6.80;99.90
11762;DHT22;5938;47.098;15.474;2024-03-02T05:39:01;6.80;99.90
11762;DHT22;5938;47.098;15.474;2024-03-02T05:43:06;6.80;99.90
11762;DHT22;5938;47.098;15.474;2024-03-02T05:47:10;6.80;99.90
11762;DHT22;5938;47.098;15.474;2024-03-02T05:51:13;6.90;99.90
11762;DHT22;5938;47.098;15.474;2024-03-02T05:55:18;6.80;99.90
11762;DHT22;5938;47.098;15.474;2024-03-02T05:59:22;6.80;99.90
11762;DHT22;5938;47.098;15.474;2024-03-02T06:03:27;6.80;99.90
11762;DHT22;5938;47.098;15.474;2024-03-02T06:07:32;6.90;99.90
11762;DHT22;5938;47.098;15.474;2024-03-02T06:11:37;6.90;99.90
11762;DHT22;5938;47.098;15.474;2024-03-02T06:15:40;6.90;99.90
11762;DHT22;5938;47.098;15.474;2024-03-02T06:19:44;6.90;99.90
11762;DHT22;5938;47.098;15.474;2024-03-02T06:23:48;7.00;99.90
11762;DHT22;5938;47.098;15.474;2024-03-02T06:27:54;7.00;99.90
11762;DHT22;5938;47.098;15.474;2024-03-02T06:31:57;7.00;99.90
11762;DHT22;5938;47.098;15.474;2024-03-02T06:36:01;7.00;99.90
11762;DHT22;5938;47.098;15.474;2024-03-02T06:40:07;7.10;99.90
11762;DHT22;5938;47.098;15.474;2024-03-02T06:44:12;7.20;99.90
11762;DHT22;5938;47.098;15.474;2024-03-02T06:48:16;7.30;99.90
11762;DHT22;5938;47.098;15.474;2024-03-02T06:52:22;7.30;99.90
11762;DHT22;5938;47.098;15.474;2024-03-02T06:56:26;7.30;99.90
11762;DHT22;5938;47.098;15.474;2024-03-02T07:00:31;7.30;99.90
11762;DHT22;5938;47.098;15.474;2024-03-02T07:04:35;7.20;99.90
11762;DHT22;5938;47.098;15.474;2024-03-02T07:08:38;7.30;99.90
11762;DHT22;5938;47.098;15.474;2024-03-02T07:12:42;7.40;99.90
11762;DHT22;5938;47.098;15.474;2024-03-02T07:16:48;7.50;99.90
11762;DHT22;5938;47.098;15.474;2024-03-02T07:20:52;7.60;99.90
11762;DHT22;5938;47.098;15.474;2024-03-02T07:24:55;7.70;99.90
11762;DHT22;5938;47.098;15.474;2024-03-02T07:28:58;7.90;99.90
11762;DHT22;5938;47.098;15.474;2024-03-02T08:00:30;8.80;99.90
11762;DHT22;5938;47.098;15.474;2024-03-02T08:04:38;9.10;99.90
11762;DHT22;5938;47.098;15.474;2024-03-02T08:08:43;9.40;99.90
11762;DHT22;5938;47.098;15.474;2024-03-02T08:12:47;9.20;99.90
11762;DHT22;5938;47.098;15.474;2024-03-02T08:17:06;9.40;99.90
11762;DHT22;5938;47.098;15.474;2024-03-02T08:21:15;9.70;99.90
11762;DHT22;5938;47.098;15.474;2024-03-02T08:25:19;9.90;99.90
11762;DHT22;5938;47.098;15.474;2024-03-02T08:29:23;10.10;99.90
11762;DHT22;5938;47.098;15.474;2024-03-02T08:33:29;10.30;99.90
11762;DHT22;5938;47.098;15.474;2024-03-02T08:37:37;10.50;99.90
11762;DHT22;5938;47.098;15.474;2024-03-02T08:41:42;10.80;99.90
11762;DHT22;5938;47.098;15.474;2024-03-02T08:45:47;11.00;99.90
11762;DHT22;5938;47.098;15.474;2024-03-02T08:49:52;11.30;99.90
11762;DHT22;5938;47.098;15.474;2024-03-02T08:58:14;11.60;99.90
11762;DHT22;5938;47.098;15.474;2024-03-02T09:02:18;11.70;99.90
11762;DHT22;5938;47.098;15.474;2024-03-02T09:06:26;11.80;99.90
11762;DHT22;5938;47.098;15.474;2024-03-02T09:10:30;11.70;99.90
11762;DHT22;5938;47.098;15.474;2024-03-02T09:14:36;11.70;99.90
11762;DHT22;5938;47.098;15.474;2024-03-02T09:18:45;12.10;99.90
11762;DHT22;5938;47.098;15.474;2024-03-02T09:39:07;12.50;99.90
11762;DHT22;5938;47.098;15.474;2024-03-02T09:43:12;12.30;99.90
11762;DHT22;5938;47.098;15.474;2024-03-02T09:47:16;11.80;99.90
11762;DHT22;5938;47.098;15.474;2024-03-02T09:51:20;11.80;99.90
11762;DHT22;5938;47.098;15.474;2024-03-02T09:55:29;12.30;99.90
11762;DHT22;5938;47.098;15.474;2024-03-02T09:59:34;12.60;99.90
11762;DHT22;5938;47.098;15.474;2024-03-02T10:03:38;12.80;99.90
11762;DHT22;5938;47.098;15.474;2024-03-02T10:07:59;12.50;99.90
11762;DHT22;5938;47.098;15.474;2024-03-02T10:12:13;12.50;99.90
11762;DHT22;5938;47.098;15.474;2024-03-02T10:16:18;12.90;99.90
11762;DHT22;5938;47.098;15.474;2024-03-02T10:20:22;13.10;99.90
11762;DHT22;5938;47.098;15.474;2024-03-02T10:24:35;14.10;98.50
11762;DHT22;5938;47.098;15.474;2024-03-02T10:28:47;13.60;99.00
11762;DHT22;5938;47.098;15.474;2024-03-02T10:32:54;14.40;98.20
11762;DHT22;5938;47.098;15.474;2024-03-02T10:36:59;14.90;96.20
11762;DHT22;5938;47.098;15.474;2024-03-02T10:41:04;14.40;96.30
11762;DHT22;5938;47.098;15.474;2024-03-02T10:45:10;14.40;97.30
11762;DHT22;5938;47.098;15.474;2024-03-02T10:49:14;15.30;95.50
11762;DHT22;5938;47.098;15.474;2024-03-02T10:53:17;16.00;94.70
11762;DHT22;5938;47.098;15.474;2024-03-02T10:57:21;16.20;93.70
11762;DHT22;5938;47.098;15.474;2024-03-02T11:01:29;16.70;93.00
11762;DHT22;5938;47.098;15.474;2024-03-02T11:05:35;18.00;91.90
11762;DHT22;5938;47.098;15.474;2024-03-02T11:09:41;20.30;88.80
11762;DHT22;5938;47.098;15.474;2024-03-02T11:13:49;23.00;80.00
11762;DHT22;5938;47.098;15.474;2024-03-02T11:17:54;22.70;73.50
11762;DHT22;5938;47.098;15.474;2024-03-02T11:21:59;21.60;76.90
11762;DHT22;5938;47.098;15.474;2024-03-02T11:26:19;21.00;77.60
11762;DHT22;5938;47.098;15.474;2024-03-02T11:30:51;22.40;73.30
11762;DHT22;5938;47.098;15.474;2024-03-02T11:35:02;23.30;74.10
11762;DHT22;5938;47.098;15.474;2024-03-02T11:39:09;24.50;71.70
11762;DHT22;5938;47.098;15.474;2024-03-02T11:43:13;25.10;68.90
11762;DHT22;5938;47.098;15.474;2024-03-02T11:47:25;23.70;70.80
11762;DHT22;5938;47.098;15.474;2024-03-02T12:02:27;24.80;70.10
11762;DHT22;5938;47.098;15.474;2024-03-02T12:06:31;24.40;68.10
11762;DHT22;5938;47.098;15.474;2024-03-02T12:10:35;25.40;65.00
11762;DHT22;5938;47.098;15.474;2024-03-02T12:14:39;24.40;64.10
11762;DHT22;5938;47.098;15.474;2024-03-02T12:18:44;25.20;63.30
11762;DHT22;5938;47.098;15.474;2024-03-02T12:22:48;24.60;63.90
11762;DHT22;5938;47.098;15.474;2024-03-02T12:26:51;24.70;64.00
11762;DHT22;5938;47.098;15.474;2024-03-02T12:30:55;26.30;62.10
11762;DHT22;5938;47.098;15.474;2024-03-02T12:35:00;26.10;59.80
11762;DHT22;5938;47.098;15.474;2024-03-02T12:39:04;26.10;59.80
11762;DHT22;5938;47.098;15.474;2024-03-02T12:43:07;24.90;61.40
11762;DHT22;5938;47.098;15.474;2024-03-02T12:47:11;24.90;63.30
11762;DHT22;5938;47.098;15.474;2024-03-02T12:51:17;25.70;60.30
11762;DHT22;5938;47.098;15.474;2024-03-02T12:55:22;24.80;64.20
11762;DHT22;5938;47.098;15.474;2024-03-02T12:59:26;23.50;66.10
11762;DHT22;5938;47.098;15.474;2024-03-02T13:03:35;23.20;67.00
11762;DHT22;5938;47.098;15.474;2024-03-02T13:07:41;23.60;65.70
11762;DHT22;5938;47.098;15.474;2024-03-02T13:11:48;23.30;67.30
11762;DHT22;5938;47.098;15.474;2024-03-02T13:15:56;20.90;71.80
11762;DHT22;5938;47.098;15.474;2024-03-02T13:20:02;21.40;72.30
11762;DHT22;5938;47.098;15.474;2024-03-02T13:24:13;20.30;71.30
11762;DHT22;5938;47.098;15.474;2024-03-02T13:28:18;19.10;75.50
11762;DHT22;5938;47.098;15.474;2024-03-02T13:32:21;19.10;76.90
11762;DHT22;5938;47.098;15.474;2024-03-02T13:36:26;19.60;76.70
11762;DHT22;5938;47.098;15.474;2024-03-02T13:40:32;19.10;76.80
11762;DHT22;5938;47.098;15.474;2024-03-02T13:44:38;18.10;79.80
11762;DHT22;5938;47.098;15.474;2024-03-02T13:48:42;17.00;82.40
11762;DHT22;5938;47.098;15.474;2024-03-02T13:52:51;16.60;83.80
11762;DHT22;5938;47.098;15.474;2024-03-02T13:57:00;16.50;84.20
11762;DHT22;5938;47.098;15.474;2024-03-02T14:01:05;16.40;85.00
11762;DHT22;5938;47.098;15.474;2024-03-02T14:05:09;15.90;88.00
11762;DHT22;5938;47.098;15.474;2024-03-02T14:09:14;17.40;84.30
11762;DHT22;5938;47.098;15.474;2024-03-02T14:13:20;16.80;84.70
11762;DHT22;5938;47.098;15.474;2024-03-02T14:17:23;16.60;85.30
11762;DHT22;5938;47.098;15.474;2024-03-02T14:21:27;16.30;87.20
11762;DHT22;5938;47.098;15.474;2024-03-02T14:25:30;15.80;87.90
11762;DHT22;5938;47.098;15.474;2024-03-02T14:29:38;15.60;88.70
11762;DHT22;5938;47.098;15.474;2024-03-02T14:33:44;15.10;89.20
11762;DHT22;5938;47.098;15.474;2024-03-02T14:37:50;14.70;90.80
11762;DHT22;5938;47.098;15.474;2024-03-02T14:41:55;14.20;90.80
11762;DHT22;5938;47.098;15.474;2024-03-02T14:46:01;14.10;91.50
11762;DHT22;5938;47.098;15.474;2024-03-02T15:17:07;12.80;96.60
11762;DHT22;5938;47.098;15.474;2024-03-02T15:21:11;12.70;95.60
11762;DHT22;5938;47.098;15.474;2024-03-02T15:25:17;12.80;95.70
11762;DHT22;5938;47.098;15.474;2024-03-02T15:29:27;12.70;96.60
11762;DHT22;5938;47.098;15.474;2024-03-02T15:33:36;12.60;96.30
11762;DHT22;5938;47.098;15.474;2024-03-02T15:37:44;12.60;96.50
11762;DHT22;5938;47.098;15.474;2024-03-02T15:41:49;12.70;96.90
11762;DHT22;5938;47.098;15.474;2024-03-02T15:45:54;12.70;96.60
11762;DHT22;5938;47.098;15.474;2024-03-02T15:50:00;12.50;96.50
11762;DHT22;5938;47.098;15.474;2024-03-02T15:54:04;12.30;97.30
11762;DHT22;5938;47.098;15.474;2024-03-02T16:30:34;11.10;99.90
11762;DHT22;5938;47.098;15.474;2024-03-02T16:34:38;10.80;99.90
11762;DHT22;5938;47.098;15.474;2024-03-02T16:38:45;10.50;99.90
11762;DHT22;5938;47.098;15.474;2024-03-02T16:42:49;10.30;99.90
11762;DHT22;5938;47.098;15.474;2024-03-02T16:46:57;10.20;99.90
11762;DHT22;5938;47.098;15.474;2024-03-02T16:51:10;9.90;99.90
11762;DHT22;5938;47.098;15.474;2024-03-02T16:55:15;9.90;99.90
11762;DHT22;5938;47.098;15.474;2024-03-02T16:59:20;9.80;99.90
11762;DHT22;5938;47.098;15.474;2024-03-02T17:09:20;9.60;99.90
11762;DHT22;5938;47.098;15.474;2024-03-02T17:13:26;9.50;99.90
11762;DHT22;5938;47.098;15.474;2024-03-02T17:17:31;9.40;99.90
11762;DHT22;5938;47.098;15.474;2024-03-02T17:21:36;9.40;99.90
11762;DHT22;5938;47.098;15.474;2024-03-02T17:25:43;9.40;99.90
11762;DHT22;5938;47.098;15.474;2024-03-02T17:29:48;9.30;99.90
11762;DHT22;5938;47.098;15.474;2024-03-02T17:34:12;9.30;99.90
11762;DHT22;5938;47.098;15.474;2024-03-02T17:39:01;9.20;99.90
11762;DHT22;5938;47.098;15.474;2024-03-02T17:43:10;9.20;99.90
11762;DHT22;5938;47.098;15.474;2024-03-02T17:51:34;9.10;99.90
11762;DHT22;5938;47.098;15.474;2024-03-02T18:01:12;8.90;99.90
11762;DHT22;5938;47.098;15.474;2024-03-02T18:05:17;8.70;99.90
11762;DHT22;5938;47.098;15.474;2024-03-02T18:09:22;8.50;99.90
11762;DHT22;5938;47.098;15.474;2024-03-02T18:13:26;8.40;99.90
11762;DHT22;5938;47.098;15.474;2024-03-02T18:17:33;8.10;99.90
11762;DHT22;5938;47.098;15.474;2024-03-02T18:21:37;8.00;99.90
11762;DHT22;5938;47.098;15.474;2024-03-02T18:25:45;7.80;99.90
11762;DHT22;5938;47.098;15.474;2024-03-02T18:29:54;7.60;99.90
11762;DHT22;5938;47.098;15.474;2024-03-02T18:34:03;7.40;99.90
11762;DHT22;5938;47.098;15.474;2024-03-02T18:38:07;7.30;99.90
11762;DHT22;5938;47.098;15.474;2024-03-02T18:42:11;7.20;99.90
11762;DHT22;5938;47.098;15.474;2024-03-02T18:52:03;6.90;99.90
11762;DHT22;5938;47.098;15.474;2024-03-02T18:56:07;6.80;99.90
11762;DHT22;5938;47.098;15.474;2024-03-02T19:00:14;6.70;99.90
11762;DHT22;5938;47.098;15.474;2024-03-02T19:04:19;6.60;99.90
11762;DHT22;5938;47.098;15.474;2024-03-02T19:08:25;6.40;99.90
11762;DHT22;5938;47.098;15.474;2024-03-02T19:12:29;6.30;99.90
11762;DHT22;5938;47.098;15.474;2024-03-02T19:16:33;6.20;99.90
11762;DHT22;5938;47.098;15.474;2024-03-02T19:20:38;6.20;99.90
11762;DHT22;5938;47.098;15.474;2024-03-02T19:24:46;6.10;99.90
11762;DHT22;5938;47.098;15.474;2024-03-02T19:28:50;6.00;99.90
11762;DHT22;5938;47.098;15.474;2024-03-02T19:32:54;5.90;99.90
11762;DHT22;5938;47.098;15.474;2024-03-02T19:36:58;5.90;99.90
11762;DHT22;5938;47.098;15.474;2024-03-02T19:41:03;5.90;99.90
11762;DHT22;5938;47.098;15.474;2024-03-02T19:45:08;6.00;99.90
11762;DHT22;5938;47.098;15.474;2024-03-02T19:49:12;6.10;99.90
11762;DHT22;5938;47.098;15.474;2024-03-02T19:53:17;6.10;99.90
11762;DHT22;5938;47.098;15.474;2024-03-02T19:57:24;6.10;99.90
11762;DHT22;5938;47.098;15.474;2024-03-02T20:01:30;6.00;99.90
11762;DHT22;5938;47.098;15.474;2024-03-02T20:05:34;6.00;99.90
11762;DHT22;5938;47.098;15.474;2024-03-02T20:09:38;5.90;99.90
11762;DHT22;5938;47.098;15.474;2024-03-02T20:13:51;5.90;99.90
11762;DHT22;5938;47.098;15.474;2024-03-02T20:17:58;5.90;99.90
11762;DHT22;5938;47.098;15.474;2024-03-02T20:22:05;5.70;99.90
11762;DHT22;5938;47.098;15.474;2024-03-02T20:26:10;5.60;99.90
11762;DHT22;5938;47.098;15.474;2024-03-02T20:30:24;5.60;99.90
11762;DHT22;5938;47.098;15.474;2024-03-02T20:34:28;5.50;99.90
11762;DHT22;5938;47.098;15.474;2024-03-02T20:38:32;5.50;99.90
11762;DHT22;5938;47.098;15.474;2024-03-02T20:42:35;5.50;99.90
11762;DHT22;5938;47.098;15.474;2024-03-02T20:46:41;5.60;99.90
11762;DHT22;5938;47.098;15.474;2024-03-02T20:55:27;5.80;99.90
11762;DHT22;5938;47.098;15.474;2024-03-02T20:59:33;5.90;99.90
11762;DHT22;5938;47.098;15.474;2024-03-02T21:03:40;6.00;99.90
11762;DHT22;5938;47.098;15.474;2024-03-02T21:07:45;6.10;99.90
11762;DHT22;5938;47.098;15.474;2024-03-02T21:17:28;6.20;99.90
11762;DHT22;5938;47.098;15.474;2024-03-02T21:21:35;6.20;99.90
11762;DHT22;5938;47.098;15.474;2024-03-02T21:25:43;6.30;99.90
11762;DHT22;5938;47.098;15.474;2024-03-02T21:29:59;6.40;99.90
11762;DHT22;5938;47.098;15.474;2024-03-02T21:34:04;6.40;99.90
11762;DHT22;5938;47.098;15.474;2024-03-02T21:38:11;6.20;99.90
11762;DHT22;5938;47.098;15.474;2024-03-02T21:42:15;6.20;99.90
11762;DHT22;5938;47.098;15.474;2024-03-02T21:46:20;6.10;99.90
11762;DHT22;5938;47.098;15.474;2024-03-02T21:50:23;6.20;99.90
11762;DHT22;5938;47.098;15.474;2024-03-02T21:54:32;6.10;99.90
11762;DHT22;5938;47.098;15.474;2024-03-02T21:58:37;6.10;99.90
11762;DHT22;5938;47.098;15.474;2024-03-02T22:02:41;6.00;99.90
11762;DHT22;5938;47.098;15.474;2024-03-02T22:06:45;6.00;99.90
11762;DHT22;5938;47.098;15.474;2024-03-02T22:10:50;5.90;99.90
11762;DHT22;5938;47.098;15.474;2024-03-02T22:14:54;5.90;99.90
11762;DHT22;5938;47.098;15.474;2024-03-02T22:19:02;5.70;99.90
11762;DHT22;5938;47.098;15.474;2024-03-02T22:23:11;5.60;99.90
11762;DHT22;5938;47.098;15.474;2024-03-02T22:27:16;5.50;99.90
11762;DHT22;5938;47.098;15.474;2024-03-02T22:31:20;5.50;99.90
11762;DHT22;5938;47.098;15.474;2024-03-02T22:35:24;5.50;99.90
11762;DHT22;5938;47.098;15.474;2024-03-02T22:39:27;5.40;99.90
11762;DHT22;5938;47.098;15.474;2024-03-02T22:43:32;5.40;99.90
11762;DHT22;5938;47.098;15.474;2024-03-02T22:47:35;5.50;99.90
11762;DHT22;5938;47.098;15.474;2024-03-02T22:51:39;5.40;99.90
11762;DHT22;5938;47.098;15.474;2024-03-02T22:55:42;5.30;99.90
11762;DHT22;5938;47.098;15.474;2024-03-02T22:59:49;5.20;99.90
11762;DHT22;5938;47.098;15.474;2024-03-02T23:03:53;5.10;99.90
11762;DHT22;5938;47.098;15.474;2024-03-02T23:07:56;5.00;99.90
11762;DHT22;5938;47.098;15.474;2024-03-02T23:12:00;5.00;99.90
11762;DHT22;5938;47.098;15.474;2024-03-02T23:16:05;4.90;99.90
11762;DHT22;5938;47.098;15.474;2024-03-02T23:20:08;4.70;99.90
11762;DHT22;5938;47.098;15.474;2024-03-02T23:24:12;4.70;99.90
11762;DHT22;5938;47.098;15.474;2024-03-02T23:28:15;4.60;99.90
11762;DHT22;5938;47.098;15.474;2024-03-02T23:32:20;4.50;99.90
11762;DHT22;5938;47.098;15.474;2024-03-02T23:36:24;4.50;99.90
11762;DHT22;5938;47.098;15.474;2024-03-02T23:40:28;4.30;99.90
11762;DHT22;5938;47.098;15.474;2024-03-02T23:44:54;4.40;99.90
11762;DHT22;5938;47.098;15.474;2024-03-02T23:48:59;4.30;99.90
11762;DHT22;5938;47.098;15.474;2024-03-02T23:53:02;4.30;99.90
11762;DHT22;5938;47.098;15.474;2024-03-02T23:57:06;4.20;99.90
